createdAt,value
2018-03-02T00:01:26.878Z,89.70
2018-03-02T00:03:54.402Z,91.20
2018-03-02T00:06:21.937Z,91.90
2018-03-02T00:08:50.198Z,91.50
2018-03-02T00:11:17.731Z,91.50
2018-03-02T00:13:45.252Z,91.60
2018-03-02T00:16:12.792Z,92.00
2018-03-02T00:18:41.080Z,93.90
2018-03-02T00:21:09.366Z,92.80
2018-03-02T00:23:36.858Z,92.80
2018-03-02T00:26:04.389Z,92.90
2018-03-02T00:28:31.890Z,92.20
2018-03-02T00:30:59.432Z,91.10
2018-03-02T00:33:26.953Z,93.40
2018-03-02T00:35:54.477Z,92.30
2018-03-02T00:38:22.001Z,93.00
2018-03-02T00:40:49.544Z,92.70
2018-03-02T00:43:17.070Z,93.90
2018-03-02T00:45:45.361Z,93.60
2018-03-02T00:48:13.645Z,93.80
2018-03-02T00:50:41.168Z,93.70
2018-03-02T00:53:08.684Z,94.60
2018-03-02T00:55:36.206Z,94.80
2018-03-02T00:58:04.508Z,93.30
2018-03-02T01:00:32.031Z,93.30
2018-03-02T01:02:59.543Z,95.30
2018-03-02T01:05:27.089Z,94.80
2018-03-02T01:07:54.618Z,94.40
2018-03-02T01:10:22.910Z,94.30
2018-03-02T01:12:50.424Z,94.30
2018-03-02T01:15:17.949Z,93.30
2018-03-02T01:17:45.455Z,95.40
2018-03-02T01:20:12.986Z,95.00
2018-03-02T01:22:40.512Z,94.60
2018-03-02T01:25:08.038Z,94.50
2018-03-02T01:27:35.567Z,95.00
2018-03-02T01:30:03.073Z,96.00
2018-03-02T01:32:31.370Z,97.10
2018-03-02T01:34:58.902Z,96.80
2018-03-02T01:37:26.435Z,94.90
2018-03-02T01:39:53.966Z,94.50
2018-03-02T01:42:21.496Z,95.40
2018-03-02T01:44:49.757Z,94.50
2018-03-02T01:47:17.297Z,94.50
2018-03-02T01:49:44.815Z,95.80
2018-03-02T01:52:12.339Z,95.70
2018-03-02T01:54:40.630Z,95.70
2018-03-02T01:57:09.036Z,95.60
2018-03-02T01:59:36.547Z,95.60
2018-03-02T02:02:04.061Z,95.70
2018-03-02T02:04:31.665Z,96.20
2018-03-02T02:06:59.189Z,95.40
2018-03-02T02:09:26.740Z,96.10
2018-03-02T02:11:54.268Z,96.10
2018-03-02T02:14:21.804Z,95.60
2018-03-02T02:16:49.329Z,94.70
2018-03-02T02:19:16.866Z,95.30
2018-03-02T02:21:44.386Z,95.80
2018-03-02T02:24:12.687Z,95.80
2018-03-02T02:26:40.200Z,95.80
2018-03-02T02:29:07.748Z,95.20
2018-03-02T02:31:35.246Z,96.80
2018-03-02T02:34:03.534Z,97.20
2018-03-02T02:36:31.833Z,96.60
2018-03-02T02:38:59.355Z,96.50
2018-03-02T02:41:27.626Z,96.70
2018-03-02T02:43:55.160Z,96.70
2018-03-02T02:46:22.674Z,97.30
2018-03-02T02:48:50.204Z,97.40
2018-03-02T02:51:18.474Z,96.60
2018-03-02T02:53:45.998Z,96.80
2018-03-02T02:56:13.510Z,97.60
2018-03-02T02:58:41.778Z,97.30
2018-03-02T03:01:10.125Z,98.00
2018-03-02T03:03:37.644Z,98.00
2018-03-02T03:06:05.185Z,98.40
2018-03-02T03:08:33.472Z,98.30
2018-03-02T03:11:01.012Z,98.30
2018-03-02T03:13:29.290Z,97.70
2018-03-02T03:15:57.584Z,97.60
2018-03-02T03:18:25.087Z,97.60
2018-03-02T03:20:52.620Z,96.90
2018-03-02T03:23:20.141Z,98.00
2018-03-02T03:25:48.457Z,98.20
2018-03-02T03:28:15.980Z,98.20
2018-03-02T03:30:44.262Z,98.40
2018-03-02T03:33:12.591Z,98.30
2018-03-02T03:35:40.088Z,98.20
2018-03-02T03:38:08.351Z,98.40
2018-03-02T03:40:35.878Z,98.10
2018-03-02T03:43:03.418Z,98.60
2018-03-02T03:45:30.943Z,97.00
2018-03-02T03:47:59.214Z,97.50
2018-03-02T03:50:27.506Z,97.80
2018-03-02T03:52:55.797Z,98.20
2018-03-02T03:55:23.294Z,98.20
2018-03-02T03:57:50.833Z,98.10
2018-03-02T04:00:18.358Z,97.50
2018-03-02T04:02:45.878Z,99.10
2018-03-02T04:05:13.517Z,99.20
2018-03-02T04:07:41.055Z,98.20
2018-03-02T04:10:08.568Z,98.60
2018-03-02T04:12:36.099Z,98.60
2018-03-02T04:15:03.602Z,99.70
2018-03-02T04:17:31.927Z,98.40
2018-03-02T04:19:59.432Z,98.40
2018-03-02T04:22:26.972Z,98.30
2018-03-02T04:24:54.468Z,98.70
2018-03-02T04:27:22.741Z,99.10
2018-03-02T04:29:51.007Z,99.40
2018-03-02T04:32:19.295Z,99.40
2018-03-02T04:34:47.571Z,99.50
2018-03-02T04:37:15.858Z,99.00
2018-03-02T04:39:43.385Z,98.90
2018-03-02T04:42:10.914Z,98.30
2018-03-02T04:44:38.437Z,99.40
2018-03-02T04:47:05.999Z,98.80
2018-03-02T04:49:33.521Z,98.70
2018-03-02T04:52:01.081Z,98.60
2018-03-02T04:54:28.600Z,97.90
2018-03-02T04:56:56.150Z,98.40
2018-03-02T04:59:23.672Z,98.60
2018-03-02T05:01:51.943Z,98.50
2018-03-02T05:04:20.280Z,98.80
2018-03-02T05:06:47.792Z,99.00
2018-03-02T05:09:16.072Z,99.20
2018-03-02T05:11:44.356Z,97.80
2018-03-02T05:14:11.896Z,97.80
2018-03-02T05:16:40.179Z,98.20
2018-03-02T05:19:08.467Z,99.30
2018-03-02T05:21:35.978Z,99.30
2018-03-02T05:24:03.505Z,98.60
2018-03-02T05:26:31.033Z,98.50
2018-03-02T05:28:59.312Z,98.80
2018-03-02T05:31:27.578Z,98.40
2018-03-02T05:33:55.871Z,98.80
2018-03-02T05:36:24.133Z,98.90
2018-03-02T05:38:52.415Z,98.90
2018-03-02T05:41:20.698Z,99.50
2018-03-02T05:43:48.993Z,99.30
2018-03-02T05:46:16.515Z,99.40
2018-03-02T05:48:44.047Z,99.20
2018-03-02T05:51:11.574Z,99.20
2018-03-02T05:53:39.080Z,99.70
2018-03-02T05:56:06.612Z,99.20
2018-03-02T05:58:34.110Z,98.80
2018-03-02T06:01:01.648Z,99.30
2018-03-02T06:03:29.172Z,98.80
2018-03-02T06:05:56.693Z,98.80
2018-03-02T06:08:24.980Z,99.90
2018-03-02T06:10:53.280Z,99.00
2018-03-02T06:13:20.858Z,99.00
2018-03-02T06:15:48.382Z,98.90
2018-03-02T06:18:16.646Z,99.90
2018-03-02T06:20:44.925Z,99.00
2018-03-02T06:23:13.224Z,99.30
2018-03-02T06:25:40.750Z,99.30
2018-03-02T06:28:08.266Z,98.50
2018-03-02T06:30:35.793Z,99.30
2018-03-02T06:33:03.302Z,99.50
2018-03-02T06:35:30.841Z,99.60
2018-03-02T06:37:58.389Z,99.90
2018-03-02T06:40:25.927Z,99.30
2018-03-02T06:42:53.440Z,99.50
2018-03-02T06:45:20.953Z,99.60
2018-03-02T06:47:48.500Z,99.50
2018-03-02T06:50:16.016Z,99.90
2018-03-02T06:52:43.549Z,99.80
2018-03-02T06:55:11.088Z,99.90
2018-03-02T06:57:38.611Z,99.80
2018-03-02T07:00:06.108Z,99.90
2018-03-02T07:02:33.635Z,99.80
2018-03-02T07:05:01.957Z,99.50
2018-03-02T07:07:29.481Z,99.50
2018-03-02T07:09:57.764Z,98.40
2018-03-02T07:12:25.300Z,98.50
2018-03-02T07:14:53.587Z,97.40
2018-03-02T07:17:21.947Z,97.90
2018-03-02T07:19:49.424Z,97.90
2018-03-02T07:22:17.737Z,97.80
2018-03-02T07:24:45.247Z,97.80
2018-03-02T07:27:13.534Z,98.20
2018-03-02T07:29:41.818Z,98.50
2018-03-02T07:32:10.124Z,97.10
2018-03-02T07:34:37.640Z,97.20
2018-03-02T07:37:05.951Z,97.50
2018-03-02T07:39:33.464Z,97.40
2018-03-02T07:42:01.756Z,96.60
2018-03-02T07:44:30.044Z,97.00
2018-03-02T07:46:57.572Z,97.00
2018-03-02T07:49:25.089Z,98.60
2018-03-02T07:51:52.600Z,97.00
2018-03-02T07:54:20.895Z,95.30
2018-03-02T07:56:48.420Z,95.20
2018-03-02T07:59:15.943Z,96.10
2018-03-02T08:01:43.460Z,94.50
2018-03-02T08:04:11.760Z,95.60
2018-03-02T08:06:39.271Z,95.60
2018-03-02T08:09:06.817Z,94.80
2018-03-02T08:11:34.317Z,96.10
2018-03-02T08:14:02.606Z,95.20
2018-03-02T08:16:30.120Z,95.20
2018-03-02T08:18:57.664Z,93.20
2018-03-02T08:21:25.190Z,94.50
2018-03-02T08:23:52.725Z,93.60
2018-03-02T08:26:20.990Z,92.00
2018-03-02T08:28:49.333Z,85.60
2018-03-02T08:31:16.850Z,85.40
2018-03-02T08:33:44.349Z,90.50
2018-03-02T08:36:12.677Z,72.90
2018-03-02T08:38:40.216Z,73.00
2018-03-02T08:41:08.514Z,54.10
2018-03-02T08:43:36.022Z,54.00
2018-03-02T08:46:03.553Z,55.30
2018-03-02T08:48:31.076Z,52.00
2018-03-02T08:50:59.385Z,49.00
2018-03-02T08:53:26.898Z,48.90
2018-03-02T08:55:54.426Z,50.10
2018-03-02T08:58:21.934Z,48.10
2018-03-02T09:00:50.242Z,53.20
2018-03-02T09:03:17.742Z,53.10
2018-03-02T09:05:45.274Z,54.90
2018-03-02T09:08:12.769Z,55.80
2018-03-02T09:10:40.286Z,60.60
2018-03-02T09:13:07.791Z,59.60
2018-03-02T09:15:36.092Z,58.50
2018-03-02T09:18:03.613Z,58.40
2018-03-02T09:20:31.156Z,72.70
2018-03-02T09:22:58.676Z,67.90
2018-03-02T09:25:26.229Z,60.00
2018-03-02T09:27:53.756Z,55.80
2018-03-02T09:30:21.260Z,60.80
2018-03-02T09:32:48.794Z,57.20
2018-03-02T09:35:17.066Z,49.90
2018-03-02T09:37:45.358Z,50.50
2018-03-02T09:40:12.883Z,50.50
2018-03-02T09:42:40.447Z,49.90
2018-03-02T09:45:07.945Z,49.80
2018-03-02T09:47:35.498Z,49.60
2018-03-02T09:50:03.047Z,48.70
2018-03-02T09:52:30.574Z,46.60
2018-03-02T09:54:58.070Z,45.70
2018-03-02T09:57:25.602Z,44.40
2018-03-02T09:59:53.116Z,44.80
2018-03-02T10:02:20.640Z,43.70
2018-03-02T10:04:48.903Z,43.40
2018-03-02T10:07:17.201Z,43.10
2018-03-02T10:09:44.722Z,43.10
2018-03-02T10:12:12.250Z,42.80
2018-03-02T10:14:39.769Z,43.80
2018-03-02T10:17:08.056Z,43.40
2018-03-02T10:19:35.574Z,43.30
2018-03-02T10:22:03.096Z,44.00
2018-03-02T10:24:30.613Z,43.60
2018-03-02T10:26:58.897Z,42.80
2018-03-02T10:29:27.244Z,43.40
2018-03-02T10:31:54.768Z,43.40
2018-03-02T10:34:22.291Z,43.40
2018-03-02T10:36:50.582Z,43.40
2018-03-02T10:39:18.118Z,43.30
2018-03-02T10:41:46.398Z,43.10
2018-03-02T10:44:14.701Z,41.70
2018-03-02T10:46:42.814Z,41.70
2018-03-02T10:49:10.350Z,42.00
2018-03-02T10:51:37.900Z,42.20
2018-03-02T10:54:05.460Z,41.30
2018-03-02T10:56:32.985Z,41.90
2018-03-02T10:59:01.276Z,41.00
2018-03-02T11:01:28.817Z,40.80
2018-03-02T11:04:01.031Z,40.60
2018-03-02T11:06:28.552Z,40.60
2018-03-02T11:08:56.076Z,39.90
2018-03-02T11:11:23.611Z,40.20
2018-03-02T11:13:51.169Z,41.10
2018-03-02T11:16:18.715Z,40.60
2018-03-02T11:18:46.219Z,39.50
2018-03-02T11:21:13.758Z,40.10
2018-03-02T11:23:42.042Z,40.30
2018-03-02T11:26:09.559Z,40.30
2018-03-02T11:28:37.058Z,40.10
2018-03-02T11:31:05.349Z,40.40
2018-03-02T11:33:32.857Z,40.30
2018-03-02T11:36:00.376Z,39.50
2018-03-02T11:38:28.656Z,40.20
2018-03-02T11:40:56.973Z,38.40
2018-03-02T11:43:24.481Z,38.40
2018-03-02T11:45:51.990Z,39.10
2018-03-02T11:48:19.536Z,38.90
2018-03-02T11:50:47.060Z,38.60
2018-03-02T11:53:15.347Z,38.70
2018-03-02T11:55:43.625Z,38.80
2018-03-02T11:58:11.920Z,39.50
2018-03-02T12:00:39.432Z,39.50
2018-03-02T12:03:06.969Z,39.30
2018-03-02T12:05:34.494Z,40.40
2018-03-02T12:08:02.041Z,40.30
2018-03-02T12:10:30.329Z,39.70
2018-03-02T12:12:57.845Z,39.70
2018-03-02T12:15:25.372Z,39.20
2018-03-02T12:17:52.884Z,38.20
2018-03-02T12:20:21.149Z,39.70
2018-03-02T12:22:48.678Z,39.70
2018-03-02T12:25:16.178Z,40.00
2018-03-02T12:27:44.516Z,38.70
2018-03-02T12:30:12.031Z,38.70
2018-03-02T12:32:39.551Z,38.40
2018-03-02T12:37:40.957Z,39.50
2018-03-02T12:40:08.471Z,40.50
2018-03-02T12:42:35.971Z,39.10
2018-03-02T12:45:03.501Z,38.40
2018-03-02T12:47:31.021Z,39.00
2018-03-02T12:49:58.552Z,39.20
2018-03-02T12:52:26.063Z,39.10
2018-03-02T12:54:53.597Z,39.30
2018-03-02T12:57:21.113Z,38.40
2018-03-02T12:59:48.653Z,38.00
2018-03-02T13:02:16.146Z,39.20
2018-03-02T13:04:43.662Z,38.40
2018-03-02T13:07:11.199Z,39.30
2018-03-02T13:09:38.713Z,40.00
2018-03-02T13:12:06.218Z,40.10
2018-03-02T13:14:33.730Z,39.10
2018-03-02T13:17:01.239Z,39.40
2018-03-02T13:19:28.786Z,38.80
2018-03-02T13:21:56.301Z,38.50
2018-03-02T13:24:23.827Z,39.10
2018-03-02T13:27:03.149Z,38.90
2018-03-02T13:29:30.642Z,38.80
2018-03-02T13:31:58.189Z,38.70
2018-03-02T13:34:38.451Z,37.70
2018-03-02T13:37:06.734Z,38.90
2018-03-02T13:39:46.822Z,37.20
2018-03-02T13:42:14.342Z,37.10
2018-03-02T13:44:42.613Z,38.10
2018-03-02T13:47:10.929Z,37.60
2018-03-02T13:52:44.239Z,37.30
2018-03-02T13:55:11.765Z,37.80
2018-03-02T13:58:06.615Z,36.70
2018-03-02T14:00:34.131Z,36.70
2018-03-02T14:03:14.352Z,37.40
2018-03-02T14:05:41.873Z,37.40
2018-03-02T14:08:09.400Z,37.20
2018-03-02T14:10:37.666Z,36.30
2018-03-02T14:13:05.974Z,36.70
2018-03-02T14:15:33.496Z,36.60
2018-03-02T14:18:01.782Z,36.40
2018-03-02T14:20:30.080Z,38.50
2018-03-02T14:22:57.595Z,38.40
2018-03-02T14:25:25.132Z,37.40
2018-03-02T14:27:52.644Z,38.50
2018-03-02T14:30:20.931Z,40.40
2018-03-02T14:32:48.444Z,40.40
2018-03-02T14:35:15.984Z,41.00
2018-03-02T14:37:44.265Z,39.00
2018-03-02T14:40:11.806Z,39.00
2018-03-02T14:42:39.314Z,39.50
2018-03-02T14:45:07.617Z,40.70
2018-03-02T14:47:35.151Z,40.60
2018-03-02T14:50:03.457Z,40.70
2018-03-02T14:52:30.973Z,40.70
2018-03-02T14:54:58.507Z,40.70
2018-03-02T14:57:26.015Z,40.10
2018-03-02T14:59:54.318Z,40.80
2018-03-02T15:02:21.842Z,40.80
2018-03-02T15:04:50.256Z,41.40
2018-03-02T15:07:17.754Z,41.40
2018-03-02T15:09:45.253Z,41.50
2018-03-02T15:12:12.770Z,41.60
2018-03-02T15:14:40.272Z,41.00
2018-03-02T15:17:07.849Z,41.60
2018-03-02T15:19:35.366Z,41.40
2018-03-02T15:22:03.676Z,42.00
2018-03-02T15:24:31.205Z,42.00
2018-03-02T15:26:59.521Z,42.10
2018-03-02T15:29:27.059Z,42.00
2018-03-02T15:31:54.589Z,43.00
2018-03-02T15:34:22.104Z,43.10
2018-03-02T15:36:49.637Z,43.10
2018-03-02T15:39:17.149Z,43.20
2018-03-02T15:41:44.699Z,43.50
2018-03-02T15:44:12.264Z,43.40
2018-03-02T15:46:39.788Z,43.20
2018-03-02T15:49:07.329Z,44.50
2018-03-02T15:51:34.907Z,44.50
2018-03-02T15:54:02.434Z,44.60
2018-03-02T15:56:30.726Z,45.80
2018-03-02T15:58:58.274Z,45.80
2018-03-02T16:01:26.556Z,45.10
2018-03-02T16:03:54.091Z,45.10
2018-03-02T16:06:21.619Z,45.80
2018-03-02T16:08:49.173Z,46.30
2018-03-02T16:11:16.725Z,45.60
2018-03-02T16:13:44.261Z,45.80
2018-03-02T16:16:11.781Z,46.90
2018-03-02T16:18:39.297Z,47.00
2018-03-02T16:21:06.809Z,47.60
2018-03-02T16:23:35.103Z,48.60
2018-03-02T16:26:02.639Z,48.60
2018-03-02T16:28:30.155Z,49.10
2018-03-02T16:30:57.721Z,49.60
2018-03-02T16:33:26.006Z,50.60
2018-03-02T16:35:53.512Z,50.60
2018-03-02T16:38:21.050Z,52.10
2018-03-02T16:40:49.345Z,54.30
2018-03-02T16:43:16.882Z,54.30
2018-03-02T16:45:44.401Z,54.40
2018-03-02T16:48:11.931Z,54.70
2018-03-02T16:50:39.454Z,52.20
2018-03-02T16:53:06.993Z,54.10
2018-03-02T16:55:34.522Z,51.90
2018-03-02T16:58:02.040Z,52.50
2018-03-02T17:00:30.372Z,52.20
2018-03-02T17:02:57.892Z,52.20
2018-03-02T17:05:26.183Z,52.80
2018-03-02T17:07:53.728Z,52.90
2018-03-02T17:10:21.263Z,53.10
2018-03-02T17:12:48.772Z,52.30
2018-03-02T17:15:16.318Z,53.60
2018-03-02T17:17:43.849Z,54.40
2018-03-02T17:20:12.133Z,57.10
2018-03-02T17:22:40.440Z,56.90
2018-03-02T17:25:07.984Z,56.80
2018-03-02T17:27:35.496Z,56.90
2018-03-02T17:30:03.020Z,57.40
2018-03-02T17:32:30.548Z,58.60
2018-03-02T17:34:58.083Z,56.60
2018-03-02T17:37:25.609Z,58.00
2018-03-02T17:39:53.122Z,56.90
2018-03-02T17:42:20.655Z,58.60
2018-03-02T17:44:48.168Z,65.50
2018-03-02T17:47:15.699Z,68.80
2018-03-02T17:49:43.212Z,71.20
2018-03-02T17:52:10.750Z,71.60
2018-03-02T17:54:38.272Z,78.70
2018-03-02T17:57:06.567Z,72.60
2018-03-02T17:59:34.129Z,72.50
2018-03-02T18:02:01.673Z,75.80
2018-03-02T18:04:29.941Z,75.60
2018-03-02T18:06:58.250Z,75.60
2018-03-02T18:09:25.781Z,75.50
2018-03-02T18:11:54.094Z,80.70
2018-03-02T18:14:21.612Z,80.70
2018-03-02T18:16:49.921Z,79.90
2018-03-02T18:19:17.461Z,79.90
2018-03-02T18:21:45.754Z,80.20
2018-03-02T18:24:13.289Z,80.50
2018-03-02T18:26:41.582Z,77.10
2018-03-02T18:29:09.093Z,77.20
2018-03-02T18:31:36.634Z,75.00
2018-03-02T18:34:04.178Z,73.70
2018-03-02T18:36:31.695Z,77.90
2018-03-02T18:38:59.993Z,67.90
2018-03-02T18:41:27.498Z,67.40
2018-03-02T18:43:55.822Z,74.00
2018-03-02T18:46:23.341Z,73.90
2018-03-02T18:48:50.881Z,63.90
2018-03-02T18:51:18.405Z,71.60
2018-03-02T18:53:45.940Z,64.20
2018-03-02T18:56:14.237Z,74.40
2018-03-02T18:58:41.793Z,74.10
2018-03-02T19:01:09.330Z,69.50
2018-03-02T19:03:37.632Z,63.40
2018-03-02T19:06:05.149Z,63.40
2018-03-02T19:08:32.675Z,59.70
2018-03-02T19:11:00.200Z,70.70
2018-03-02T19:13:27.728Z,73.70
2018-03-02T19:15:55.256Z,64.80
2018-03-02T19:18:22.794Z,66.10
2018-03-02T19:20:50.307Z,64.90
2018-03-02T19:23:17.852Z,74.00
2018-03-02T19:25:45.376Z,67.00
2018-03-02T19:28:12.906Z,68.60
2018-03-02T19:30:40.442Z,72.90
2018-03-02T19:33:07.973Z,66.60
2018-03-02T19:35:35.517Z,69.60
2018-03-02T19:38:03.066Z,73.60
2018-03-02T19:40:30.588Z,80.30
2018-03-02T19:42:58.886Z,79.50
2018-03-02T19:45:26.415Z,79.30
2018-03-02T19:47:54.698Z,80.90
2018-03-02T19:50:22.984Z,76.10
2018-03-02T19:52:51.276Z,72.00
2018-03-02T19:55:18.845Z,72.00
2018-03-02T19:57:46.363Z,75.80
2018-03-02T20:00:14.660Z,79.40
2018-03-02T20:02:42.183Z,79.70
2018-03-02T20:05:09.717Z,74.60
2018-03-02T20:07:37.250Z,78.20
2018-03-02T20:10:04.759Z,74.80
2018-03-02T20:12:32.304Z,78.60
2018-03-02T20:14:59.810Z,78.00
2018-03-02T20:17:28.288Z,82.50
2018-03-02T20:19:56.576Z,80.00
2018-03-02T20:22:24.116Z,80.10
2018-03-02T20:24:52.443Z,86.80
2018-03-02T20:27:19.999Z,86.70
2018-03-02T20:29:47.525Z,89.20
2018-03-02T20:32:15.046Z,86.50
2018-03-02T20:34:42.574Z,85.70
2018-03-02T20:37:10.087Z,82.60
2018-03-02T20:39:38.379Z,82.20
2018-03-02T20:42:05.947Z,82.20
2018-03-02T20:44:34.213Z,90.00
2018-03-02T20:47:01.741Z,90.00
2018-03-02T20:49:30.044Z,91.50
2018-03-02T20:51:57.550Z,91.50
2018-03-02T20:54:25.125Z,90.80
2018-03-02T20:56:52.632Z,89.80
2018-03-02T20:59:20.160Z,90.80
2018-03-02T21:01:48.470Z,89.70
2018-03-02T21:04:15.990Z,89.60
2018-03-02T21:06:44.268Z,90.10
2018-03-02T21:09:12.547Z,90.70
2018-03-02T21:11:40.846Z,90.70
2018-03-02T21:14:08.377Z,90.70
2018-03-02T21:16:36.660Z,90.50
2018-03-02T21:19:04.964Z,91.00
2018-03-02T21:21:32.475Z,91.00
2018-03-02T21:24:00.041Z,89.70
2018-03-02T21:26:27.571Z,88.40
2018-03-02T21:28:55.137Z,88.30
2018-03-02T21:31:22.677Z,87.30
2018-03-02T21:33:50.197Z,86.30
2018-03-02T21:36:18.512Z,88.50
2018-03-02T21:38:46.037Z,88.50
2018-03-02T21:41:13.546Z,90.10
2018-03-02T21:43:41.106Z,84.70
2018-03-02T21:46:08.607Z,88.50
2018-03-02T21:48:36.906Z,91.70
2018-03-02T21:51:04.424Z,91.70
2018-03-02T21:53:31.957Z,87.40
2018-03-02T21:55:59.482Z,88.20
2018-03-02T21:58:27.045Z,89.10
2018-03-02T22:00:54.550Z,90.40
2018-03-02T22:03:22.092Z,90.20
2018-03-02T22:05:49.607Z,90.20
2018-03-02T22:08:17.136Z,91.10
2018-03-02T22:10:44.676Z,91.00
2018-03-02T22:13:12.231Z,85.10
2018-03-02T22:15:39.769Z,91.00
2018-03-02T22:18:07.307Z,88.40
2018-03-02T22:20:34.919Z,90.00
2018-03-02T22:23:02.433Z,90.70
2018-03-02T22:25:29.972Z,88.20
2018-03-02T22:27:58.281Z,90.90
2018-03-02T22:30:25.829Z,90.90
2018-03-02T22:32:53.352Z,89.30
2018-03-02T22:35:21.661Z,91.20
2018-03-02T22:37:49.177Z,91.10
2018-03-02T22:40:16.715Z,92.20
2018-03-02T22:42:44.248Z,92.70
2018-03-02T22:45:11.780Z,91.90
2018-03-02T22:47:39.322Z,90.80
2018-03-02T22:50:07.645Z,89.60
2018-03-02T22:52:35.217Z,89.40
2018-03-02T22:55:02.754Z,83.10
2018-03-02T22:57:30.268Z,90.30
2018-03-02T22:59:58.576Z,89.20
2018-03-02T23:02:26.106Z,89.30
2018-03-02T23:04:54.402Z,91.90
2018-03-02T23:07:22.696Z,85.50
2018-03-02T23:09:50.228Z,85.40
2018-03-02T23:12:18.518Z,90.20
2018-03-02T23:14:46.050Z,90.10
2018-03-02T23:17:13.575Z,89.70
2018-03-02T23:19:41.114Z,90.30
2018-03-02T23:22:08.660Z,86.20
2018-03-02T23:24:36.171Z,85.40
2018-03-02T23:27:03.731Z,90.60
2018-03-02T23:29:31.268Z,90.70
2018-03-02T23:31:58.794Z,87.30
2018-03-02T23:34:26.320Z,89.20
2018-03-02T23:36:54.644Z,89.70
2018-03-02T23:39:22.159Z,89.60
2018-03-02T23:41:50.446Z,90.30
2018-03-02T23:44:18.757Z,90.60
2018-03-02T23:46:46.308Z,90.50
2018-03-02T23:49:13.864Z,91.60
2018-03-02T23:51:41.387Z,90.80
2018-03-02T23:54:08.933Z,91.80
2018-03-02T23:56:36.492Z,92.00
2018-03-02T23:59:04.019Z,88.60
